createdAt,value
2017-09-23T00:00:38.872Z,0.00
2017-09-23T00:02:33.408Z,0.00
2017-09-23T00:03:33.360Z,0.00
2017-09-23T00:05:28.384Z,0.00
2017-09-23T00:06:28.512Z,0.00
2017-09-23T00:08:21.921Z,0.00
2017-09-23T00:09:21.961Z,0.00
2017-09-23T00:11:14.985Z,0.00
2017-09-23T00:12:15.016Z,0.00
2017-09-23T00:14:09.417Z,0.00
2017-09-23T00:15:09.449Z,0.00
2017-09-23T00:17:03.945Z,0.00
2017-09-23T00:18:03.945Z,0.00
2017-09-23T00:19:57.433Z,0.00
2017-09-23T00:20:57.442Z,0.00
2017-09-23T00:22:51.897Z,0.00
2017-09-23T00:23:51.929Z,0.00
2017-09-23T00:25:45.538Z,0.00
2017-09-23T00:26:45.537Z,0.00
2017-09-23T00:28:39.954Z,0.00
2017-09-23T00:29:39.986Z,0.00
2017-09-23T00:31:34.468Z,0.00
2017-09-23T00:32:34.492Z,0.00
2017-09-23T00:34:28.972Z,0.00
2017-09-23T00:35:29.099Z,0.00
2017-09-23T00:37:23.564Z,0.00
2017-09-23T00:38:23.588Z,0.00
2017-09-23T00:40:18.012Z,0.00
2017-09-23T00:41:18.108Z,0.00
2017-09-23T00:43:11.621Z,0.00
2017-09-23T00:44:11.628Z,0.00
2017-09-23T00:46:04.596Z,0.00
2017-09-23T00:47:04.668Z,0.00
2017-09-23T00:48:57.693Z,0.00
2017-09-23T00:49:57.629Z,0.00
2017-09-23T00:51:52.116Z,0.00
2017-09-23T00:52:52.157Z,0.00
2017-09-23T00:54:47.214Z,0.00
2017-09-23T00:55:47.316Z,0.00
2017-09-23T00:57:40.652Z,0.00
2017-09-23T00:58:40.701Z,0.00
2017-09-23T01:00:35.173Z,0.00
2017-09-23T01:01:35.229Z,0.00
2017-09-23T01:03:29.685Z,0.00
2017-09-23T01:04:29.677Z,0.00
2017-09-23T01:06:24.167Z,0.00
2017-09-23T01:07:24.277Z,0.00
2017-09-23T01:09:18.649Z,0.00
2017-09-23T01:10:18.669Z,0.00
2017-09-23T01:12:13.268Z,0.00
2017-09-23T01:13:13.261Z,0.00
2017-09-23T01:15:07.277Z,0.00
2017-09-23T01:16:06.277Z,0.00
2017-09-23T01:18:00.845Z,0.00
2017-09-23T01:19:00.765Z,0.00
2017-09-23T01:20:55.214Z,0.00
2017-09-23T01:21:55.261Z,0.00
2017-09-23T01:23:50.311Z,0.00
2017-09-23T01:24:50.334Z,0.00
2017-09-23T01:26:44.774Z,0.00
2017-09-23T01:27:44.910Z,0.00
2017-09-23T01:29:39.374Z,0.00
2017-09-23T01:30:39.334Z,0.00
2017-09-23T01:32:33.789Z,0.00
2017-09-23T01:33:33.886Z,0.00
2017-09-23T01:35:28.270Z,0.00
2017-09-23T01:36:28.342Z,0.00
2017-09-23T01:38:21.837Z,0.00
2017-09-23T01:39:21.829Z,0.00
2017-09-23T01:41:15.877Z,0.00
2017-09-23T01:42:15.917Z,0.00
2017-09-23T01:44:10.885Z,0.00
2017-09-23T01:45:10.830Z,0.00
2017-09-23T01:47:04.385Z,0.00
2017-09-23T01:48:04.446Z,0.00
2017-09-23T01:49:58.878Z,0.00
2017-09-23T01:50:59.030Z,0.00
2017-09-23T01:52:53.382Z,0.00
2017-09-23T01:53:53.518Z,0.00
2017-09-23T01:55:47.902Z,0.00
2017-09-23T01:56:47.878Z,0.00
2017-09-23T01:58:41.430Z,0.00
2017-09-23T01:59:41.486Z,0.00
2017-09-23T02:01:35.943Z,0.00
2017-09-23T02:02:35.990Z,0.00
2017-09-23T02:04:30.414Z,0.00
2017-09-23T02:05:30.526Z,0.00
2017-09-23T02:07:24.927Z,0.00
2017-09-23T02:08:24.951Z,0.00
2017-09-23T02:10:19.480Z,0.00
2017-09-23T02:11:19.471Z,0.00
2017-09-23T02:13:13.512Z,0.00
2017-09-23T02:14:13.583Z,0.00
2017-09-23T02:16:08.047Z,0.00
2017-09-23T02:17:08.031Z,0.00
2017-09-23T02:19:02.615Z,0.00
2017-09-23T02:20:02.663Z,0.00
2017-09-23T02:21:55.647Z,0.00
2017-09-23T02:22:55.711Z,0.00
2017-09-23T02:24:49.136Z,0.00
2017-09-23T02:25:49.168Z,0.00
2017-09-23T02:27:43.639Z,0.00
2017-09-23T02:28:43.655Z,0.00
2017-09-23T02:30:37.272Z,0.00
2017-09-23T02:31:37.263Z,0.00
2017-09-23T02:33:32.169Z,0.00
2017-09-23T02:34:32.287Z,0.00
2017-09-23T02:36:25.791Z,0.00
2017-09-23T02:37:25.791Z,0.00
2017-09-23T02:39:18.832Z,0.00
2017-09-23T02:40:18.847Z,0.00
2017-09-23T02:42:13.336Z,0.00
2017-09-23T02:43:13.304Z,0.00
2017-09-23T02:45:07.967Z,0.00
2017-09-23T02:46:07.793Z,0.00
2017-09-23T02:48:02.320Z,0.00
2017-09-23T02:49:02.328Z,0.00
2017-09-23T02:50:56.769Z,0.00
2017-09-23T02:51:56.857Z,0.00
2017-09-23T02:53:50.345Z,0.00
2017-09-23T02:54:50.377Z,0.00
2017-09-23T02:56:43.489Z,0.00
2017-09-23T02:57:43.416Z,0.00
2017-09-23T02:59:37.921Z,0.00
2017-09-23T03:00:37.977Z,0.00
2017-09-23T03:02:34.009Z,0.00
2017-09-23T03:03:33.977Z,0.00
2017-09-23T03:05:28.385Z,0.00
2017-09-23T03:06:28.505Z,0.00
2017-09-23T03:08:22.913Z,0.00
2017-09-23T03:09:22.962Z,0.00
2017-09-23T03:11:17.409Z,0.00
2017-09-23T03:12:17.488Z,0.00
2017-09-23T03:14:12.116Z,0.00
2017-09-23T03:15:12.152Z,0.00
2017-09-23T03:17:06.585Z,0.00
2017-09-23T03:18:06.601Z,0.00
2017-09-23T03:20:01.082Z,0.00
2017-09-23T03:21:01.125Z,0.00
2017-09-23T03:22:56.762Z,0.00
2017-09-23T03:23:56.778Z,0.00
2017-09-23T03:25:51.321Z,0.00
2017-09-23T03:26:51.329Z,0.00
2017-09-23T03:28:44.282Z,0.00
2017-09-23T03:29:44.297Z,0.00
2017-09-23T03:31:38.749Z,0.00
2017-09-23T03:32:38.778Z,0.00
2017-09-23T03:34:33.498Z,0.00
2017-09-23T03:35:33.282Z,0.00
2017-09-23T03:37:27.723Z,0.00
2017-09-23T03:38:27.802Z,0.00
2017-09-23T03:40:21.281Z,0.00
2017-09-23T03:41:21.369Z,0.00
2017-09-23T03:43:15.705Z,0.00
2017-09-23T03:44:15.745Z,0.00
2017-09-23T03:46:09.872Z,0.00
2017-09-23T03:47:09.858Z,0.00
2017-09-23T03:49:03.361Z,0.00
2017-09-23T03:50:03.313Z,0.00
2017-09-23T03:51:58.401Z,0.00
2017-09-23T03:53:00.370Z,0.00
2017-09-23T03:54:51.890Z,0.00
2017-09-23T03:55:51.945Z,0.00
2017-09-23T03:57:44.969Z,0.00
2017-09-23T03:58:44.898Z,0.00
2017-09-23T04:00:39.362Z,0.00
2017-09-23T04:01:39.378Z,0.00
2017-09-23T04:03:33.842Z,0.00
2017-09-23T04:04:33.875Z,0.00
2017-09-23T04:06:28.921Z,0.00
2017-09-23T04:07:29.018Z,0.00
2017-09-23T04:09:23.411Z,0.00
2017-09-23T04:10:23.450Z,0.00
2017-09-23T04:12:18.010Z,0.00
2017-09-23T04:13:18.035Z,0.00
2017-09-23T04:15:12.035Z,0.00
2017-09-23T04:16:12.035Z,0.00
2017-09-23T04:18:06.579Z,0.00
2017-09-23T04:19:06.547Z,0.00
2017-09-23T04:21:00.012Z,0.00
2017-09-23T04:22:00.091Z,0.00
2017-09-23T04:23:53.700Z,0.00
2017-09-23T04:24:53.644Z,0.00
2017-09-23T04:26:48.299Z,0.00
2017-09-23T04:27:48.259Z,0.00
2017-09-23T04:29:43.195Z,0.00
2017-09-23T04:30:43.195Z,0.00
2017-09-23T04:32:36.204Z,0.00
2017-09-23T04:33:36.244Z,0.00
2017-09-23T04:35:29.763Z,0.00
2017-09-23T04:36:29.796Z,0.00
2017-09-23T04:38:24.420Z,0.00
2017-09-23T04:39:24.341Z,0.00
2017-09-23T04:41:18.844Z,0.00
2017-09-23T04:42:18.796Z,0.00
2017-09-23T04:44:14.876Z,0.00
2017-09-23T04:45:14.884Z,0.00
2017-09-23T04:47:08.341Z,0.00
2017-09-23T04:48:08.425Z,0.00
2017-09-23T04:50:02.909Z,0.00
2017-09-23T04:51:02.996Z,0.00
2017-09-23T04:52:57.317Z,0.00
2017-09-23T04:53:57.357Z,0.00
2017-09-23T04:55:51.029Z,0.00
2017-09-23T04:56:50.989Z,0.00
2017-09-23T04:58:45.492Z,0.00
2017-09-23T04:59:45.474Z,0.00
2017-09-23T05:01:42.496Z,0.00
2017-09-23T05:02:42.532Z,0.00
2017-09-23T05:04:37.032Z,0.00
2017-09-23T05:05:37.104Z,0.00
2017-09-23T05:07:31.448Z,0.00
2017-09-23T05:08:31.488Z,0.00
2017-09-23T05:10:24.953Z,0.00
2017-09-23T05:11:24.970Z,0.00
2017-09-23T05:13:19.464Z,0.00
2017-09-23T05:14:18.536Z,0.00
2017-09-23T05:16:11.543Z,0.00
2017-09-23T05:17:11.584Z,0.00
2017-09-23T05:19:06.024Z,0.00
2017-09-23T05:20:06.039Z,0.00
2017-09-23T05:22:00.568Z,0.00
2017-09-23T05:23:00.632Z,0.00
2017-09-23T05:24:53.600Z,0.00
2017-09-23T05:25:53.656Z,0.00
2017-09-23T05:27:48.112Z,0.00
2017-09-23T05:28:48.136Z,0.00
2017-09-23T05:30:42.665Z,0.00
2017-09-23T05:31:42.800Z,0.00
2017-09-23T05:33:36.080Z,0.00
2017-09-23T05:34:36.112Z,0.00
2017-09-23T05:36:29.731Z,0.00
2017-09-23T05:37:30.633Z,0.00
2017-09-23T05:39:23.121Z,0.00
2017-09-23T05:40:23.521Z,0.00
2017-09-23T05:42:17.708Z,5.63
2017-09-23T05:43:17.724Z,5.63
2017-09-23T05:45:12.281Z,5.63
2017-09-23T05:46:12.209Z,5.63
2017-09-23T05:48:06.721Z,5.63
2017-09-23T05:49:06.706Z,5.63
2017-09-23T05:51:01.160Z,5.63
2017-09-23T05:52:02.161Z,5.63
2017-09-23T05:53:55.217Z,5.63
2017-09-23T05:54:55.241Z,5.63
2017-09-23T05:56:51.195Z,5.63
2017-09-23T05:57:51.217Z,5.63
2017-09-23T05:59:45.706Z,11.25
2017-09-23T06:00:45.721Z,11.25
2017-09-23T06:02:40.217Z,11.25
2017-09-23T06:03:40.225Z,11.25
2017-09-23T06:05:33.810Z,11.25
2017-09-23T06:06:33.817Z,11.25
2017-09-23T06:08:26.842Z,11.25
2017-09-23T06:09:26.841Z,16.88
2017-09-23T06:11:20.290Z,16.88
2017-09-23T06:12:20.321Z,16.88
2017-09-23T06:14:14.802Z,16.88
2017-09-23T06:15:14.818Z,16.88
2017-09-23T06:17:09.306Z,16.88
2017-09-23T06:18:09.338Z,16.88
2017-09-23T06:20:03.797Z,22.50
2017-09-23T06:21:03.834Z,22.50
2017-09-23T06:22:58.434Z,22.50
2017-09-23T06:23:58.434Z,22.50
2017-09-23T06:25:51.435Z,16.88
2017-09-23T06:26:51.459Z,16.88
2017-09-23T06:28:45.891Z,22.50
2017-09-23T06:29:45.947Z,22.50
2017-09-23T06:31:40.426Z,16.88
2017-09-23T06:32:40.506Z,16.88
2017-09-23T06:34:34.899Z,16.88
2017-09-23T06:35:34.923Z,16.88
2017-09-23T06:37:29.427Z,22.50
2017-09-23T06:38:29.451Z,22.50
2017-09-23T06:40:23.923Z,22.50
2017-09-23T06:41:23.971Z,22.50
2017-09-23T06:43:18.469Z,22.50
2017-09-23T06:44:18.451Z,28.13
2017-09-23T06:46:12.891Z,22.50
2017-09-23T06:47:12.947Z,22.50
2017-09-23T06:49:06.603Z,22.50
2017-09-23T06:50:06.555Z,28.13
2017-09-23T06:52:00.997Z,22.50
2017-09-23T06:53:01.084Z,22.50
2017-09-23T06:54:55.523Z,28.13
2017-09-23T06:55:55.532Z,22.50
2017-09-23T06:57:50.020Z,28.13
2017-09-23T06:58:50.084Z,28.13
2017-09-23T07:00:44.500Z,28.13
2017-09-23T07:01:44.549Z,28.13
2017-09-23T07:03:39.012Z,33.75
2017-09-23T07:04:39.030Z,33.75
2017-09-23T07:06:32.524Z,28.13
2017-09-23T07:07:32.533Z,33.75
2017-09-23T07:09:26.991Z,33.75
2017-09-23T07:10:27.021Z,28.13
2017-09-23T07:12:23.077Z,33.75
2017-09-23T07:13:22.109Z,39.38
2017-09-23T07:15:15.540Z,39.38
2017-09-23T07:16:15.581Z,39.38
2017-09-23T07:18:09.053Z,39.38
2017-09-23T07:19:09.069Z,50.63
2017-09-23T07:21:02.029Z,56.25
2017-09-23T07:22:02.071Z,56.25
2017-09-23T07:23:56.558Z,50.63
2017-09-23T07:24:56.573Z,45.00
2017-09-23T07:26:50.101Z,45.00
2017-09-23T07:27:50.197Z,39.38
2017-09-23T07:29:44.613Z,39.38
2017-09-23T07:30:44.637Z,39.38
2017-09-23T07:32:40.701Z,50.63
2017-09-23T07:33:40.726Z,50.63
2017-09-23T07:35:33.686Z,56.25
2017-09-23T07:36:33.749Z,50.63
2017-09-23T07:38:28.325Z,56.25
2017-09-23T07:39:28.310Z,50.63
2017-09-23T07:41:21.773Z,50.63
2017-09-23T07:42:21.806Z,50.63
2017-09-23T07:44:16.287Z,67.50
2017-09-23T07:45:16.302Z,56.25
2017-09-23T07:47:10.781Z,67.50
2017-09-23T07:48:10.813Z,73.13
2017-09-23T07:50:05.318Z,56.25
2017-09-23T07:51:05.310Z,56.25
2017-09-23T07:53:01.391Z,56.25
2017-09-23T07:54:01.406Z,67.50
2017-09-23T07:55:54.894Z,78.75
2017-09-23T07:56:54.895Z,73.13
2017-09-23T07:58:49.358Z,67.50
2017-09-23T07:59:49.391Z,67.50
2017-09-23T08:01:43.879Z,67.50
2017-09-23T08:02:43.919Z,73.13
2017-09-23T08:04:38.350Z,73.13
2017-09-23T08:05:38.399Z,73.13
2017-09-23T08:07:32.879Z,73.13
2017-09-23T08:08:32.896Z,78.75
2017-09-23T08:10:27.383Z,78.75
2017-09-23T08:11:27.423Z,73.13
2017-09-23T08:13:20.887Z,78.75
2017-09-23T08:14:20.905Z,78.75
2017-09-23T08:16:15.367Z,78.75
2017-09-23T08:17:15.408Z,78.75
2017-09-23T08:19:09.911Z,78.75
2017-09-23T08:20:09.911Z,78.75
2017-09-23T08:22:03.367Z,84.38
2017-09-23T08:23:03.407Z,84.38
2017-09-23T08:24:57.007Z,84.38
2017-09-23T08:25:57.040Z,84.38
2017-09-23T08:27:50.047Z,84.38
2017-09-23T08:28:50.039Z,84.38
2017-09-23T08:30:43.056Z,84.38
2017-09-23T08:31:43.056Z,90.00
2017-09-23T08:33:36.504Z,90.00
2017-09-23T08:34:36.568Z,78.75
2017-09-23T08:36:31.040Z,56.25
2017-09-23T08:37:31.056Z,61.88
2017-09-23T08:39:24.624Z,67.50
2017-09-23T08:40:24.672Z,101.25
2017-09-23T08:42:17.664Z,101.25
2017-09-23T08:43:17.672Z,106.88
2017-09-23T08:45:10.640Z,95.63
2017-09-23T08:46:10.720Z,101.25
2017-09-23T08:48:05.168Z,140.63
2017-09-23T08:49:05.184Z,123.75
2017-09-23T08:50:59.664Z,118.13
2017-09-23T08:51:59.705Z,112.50
2017-09-23T08:53:54.193Z,90.00
2017-09-23T08:54:54.209Z,84.38
2017-09-23T08:56:48.681Z,101.25
2017-09-23T08:57:48.728Z,95.63
2017-09-23T08:59:43.225Z,129.38
2017-09-23T09:00:43.238Z,123.75
2017-09-23T09:02:37.710Z,118.13
2017-09-23T09:03:37.753Z,112.50
2017-09-23T09:05:32.265Z,118.13
2017-09-23T09:06:32.273Z,112.50
2017-09-23T09:08:26.729Z,101.25
2017-09-23T09:09:26.953Z,101.25
2017-09-23T09:11:20.297Z,112.50
2017-09-23T09:12:20.321Z,135.00
2017-09-23T09:14:13.858Z,135.00
2017-09-23T09:15:13.875Z,140.63
2017-09-23T09:17:08.377Z,67.50
2017-09-23T09:18:08.401Z,73.13
2017-09-23T09:20:01.946Z,95.63
2017-09-23T09:21:01.985Z,112.50
2017-09-23T09:22:55.447Z,101.25
2017-09-23T09:23:55.529Z,112.50
2017-09-23T09:25:49.953Z,129.38
2017-09-23T09:26:49.988Z,118.13
2017-09-23T09:28:44.458Z,90.00
2017-09-23T09:29:44.602Z,78.75
2017-09-23T09:31:38.082Z,73.13
2017-09-23T09:32:38.370Z,73.13
2017-09-23T09:34:31.584Z,73.13
2017-09-23T09:35:31.848Z,67.50
2017-09-23T09:37:25.200Z,78.75
2017-09-23T09:38:25.200Z,106.88
2017-09-23T09:40:18.672Z,163.13
2017-09-23T09:41:18.754Z,101.25
2017-09-23T09:43:12.296Z,135.00
2017-09-23T09:44:13.280Z,163.13
2017-09-23T09:46:05.369Z,168.75
2017-09-23T09:47:05.344Z,151.88
2017-09-23T09:48:58.832Z,146.25
2017-09-23T09:49:58.864Z,180.00
2017-09-23T09:51:53.345Z,219.38
2017-09-23T09:52:53.393Z,219.38
2017-09-23T09:54:46.904Z,196.88
2017-09-23T09:55:46.961Z,191.25
2017-09-23T09:57:41.425Z,191.25
2017-09-23T09:58:41.457Z,191.25
2017-09-23T10:00:34.945Z,196.88
2017-09-23T10:01:34.969Z,140.63
2017-09-23T10:03:29.457Z,163.13
2017-09-23T10:04:29.505Z,191.25
2017-09-23T10:06:24.009Z,213.75
2017-09-23T10:07:24.026Z,236.25
2017-09-23T10:09:18.497Z,258.75
2017-09-23T10:10:18.545Z,253.13
2017-09-23T10:12:12.105Z,253.13
2017-09-23T10:13:12.121Z,202.50
2017-09-23T10:15:05.169Z,140.63
2017-09-23T10:16:05.177Z,230.63
2017-09-23T10:17:59.657Z,101.25
2017-09-23T10:18:59.698Z,95.63
2017-09-23T10:20:54.210Z,90.00
2017-09-23T10:21:54.225Z,90.00
2017-09-23T10:23:47.698Z,90.00
2017-09-23T10:24:47.729Z,90.00
2017-09-23T10:26:42.233Z,95.63
2017-09-23T10:27:42.255Z,95.63
2017-09-23T10:29:35.795Z,84.38
2017-09-23T10:30:35.826Z,84.38
2017-09-23T10:32:30.322Z,90.00
2017-09-23T10:33:30.370Z,123.75
2017-09-23T10:35:23.866Z,196.88
2017-09-23T10:36:23.923Z,157.50
2017-09-23T10:38:18.419Z,135.00
2017-09-23T10:39:18.443Z,112.50
2017-09-23T10:41:11.906Z,101.25
2017-09-23T10:42:11.940Z,112.50
2017-09-23T10:44:06.452Z,275.63
2017-09-23T10:45:06.487Z,168.75
2017-09-23T10:47:01.994Z,219.38
2017-09-23T10:48:02.028Z,191.25
2017-09-23T10:49:56.506Z,151.88
2017-09-23T10:50:56.522Z,174.38
2017-09-23T10:52:50.116Z,219.38
2017-09-23T10:53:50.116Z,174.38
2017-09-23T10:55:43.587Z,281.25
2017-09-23T10:56:43.626Z,281.25
2017-09-23T10:58:37.651Z,135.00
2017-09-23T10:59:37.203Z,135.00
2017-09-23T11:01:30.203Z,191.25
2017-09-23T11:02:30.252Z,219.38
2017-09-23T11:04:30.755Z,140.63
2017-09-23T11:05:23.260Z,123.75
2017-09-23T11:07:16.252Z,129.38
2017-09-23T11:08:17.292Z,118.13
2017-09-23T11:10:09.292Z,135.00
2017-09-23T11:11:10.403Z,140.63
2017-09-23T11:13:02.324Z,174.38
2017-09-23T11:14:02.356Z,196.88
2017-09-23T11:15:55.380Z,208.13
2017-09-23T11:16:55.388Z,241.88
2017-09-23T11:18:48.861Z,196.88
2017-09-23T11:19:48.900Z,196.88
2017-09-23T11:21:43.385Z,236.25
2017-09-23T11:22:43.405Z,230.63
2017-09-23T11:24:37.925Z,213.75
2017-09-23T11:25:37.932Z,196.88
2017-09-23T11:27:32.397Z,174.38
2017-09-23T11:28:32.444Z,168.75
2017-09-23T11:30:26.933Z,151.88
2017-09-23T11:31:26.949Z,146.25
2017-09-23T11:33:21.429Z,123.75
2017-09-23T11:34:21.477Z,112.50
2017-09-23T11:36:15.965Z,101.25
2017-09-23T11:37:16.021Z,106.88
2017-09-23T11:39:10.479Z,129.38
2017-09-23T11:40:10.509Z,163.13
2017-09-23T11:42:05.006Z,180.00
2017-09-23T11:43:05.013Z,151.88
2017-09-23T11:44:58.485Z,174.38
2017-09-23T11:45:58.518Z,163.13
2017-09-23T11:47:52.091Z,146.25
2017-09-23T11:48:52.101Z,140.63
2017-09-23T11:50:45.093Z,112.50
2017-09-23T11:51:45.134Z,95.63
2017-09-23T11:53:38.141Z,84.38
2017-09-23T11:54:38.158Z,84.38
2017-09-23T11:56:31.678Z,95.63
2017-09-23T11:57:31.742Z,101.25
2017-09-23T11:59:26.318Z,106.88
2017-09-23T12:00:26.342Z,202.50
2017-09-23T12:02:19.918Z,241.88
2017-09-23T12:03:19.943Z,360.00
2017-09-23T12:05:12.894Z,405.00
2017-09-23T12:06:12.974Z,416.25
2017-09-23T12:08:07.487Z,427.50
2017-09-23T12:09:07.471Z,427.50
2017-09-23T12:11:01.015Z,416.25
2017-09-23T12:12:01.057Z,405.00
2017-09-23T12:13:55.586Z,410.63
2017-09-23T12:14:55.583Z,421.88
2017-09-23T12:16:50.063Z,438.75
2017-09-23T12:17:50.111Z,461.25
2017-09-23T12:19:43.736Z,483.75
2017-09-23T12:20:43.639Z,483.75
2017-09-23T12:22:37.159Z,478.13
2017-09-23T12:23:37.232Z,478.13
2017-09-23T12:25:31.695Z,461.25
2017-09-23T12:26:31.735Z,466.88
2017-09-23T12:28:25.247Z,455.63
2017-09-23T12:29:25.279Z,236.25
2017-09-23T12:31:19.784Z,360.00
2017-09-23T12:32:19.842Z,472.50
2017-09-23T12:34:14.344Z,236.25
2017-09-23T12:35:14.343Z,241.88
2017-09-23T12:37:08.847Z,241.88
2017-09-23T12:38:08.904Z,208.13
2017-09-23T12:40:03.392Z,174.38
2017-09-23T12:41:03.408Z,163.13
2017-09-23T12:42:58.016Z,129.38
2017-09-23T12:43:58.968Z,140.63
2017-09-23T12:45:51.552Z,337.50
2017-09-23T12:46:51.584Z,376.88
2017-09-23T12:48:46.120Z,185.63
2017-09-23T12:49:46.096Z,163.13
2017-09-23T12:51:39.584Z,129.38
2017-09-23T12:52:39.633Z,118.13
2017-09-23T12:54:33.216Z,78.75
2017-09-23T12:55:33.216Z,73.13
2017-09-23T12:57:26.752Z,73.13
2017-09-23T12:58:26.784Z,67.50
2017-09-23T13:00:20.312Z,61.88
2017-09-23T13:01:20.329Z,61.88
2017-09-23T13:03:14.866Z,67.50
2017-09-23T13:04:14.915Z,67.50
2017-09-23T13:06:08.402Z,84.38
2017-09-23T13:07:08.426Z,95.63
2017-09-23T13:09:02.905Z,101.25
2017-09-23T13:10:02.993Z,118.13
2017-09-23T13:11:57.441Z,118.13
2017-09-23T13:12:57.453Z,90.00
2017-09-23T13:14:51.978Z,95.63
2017-09-23T13:15:51.977Z,106.88
2017-09-23T13:17:46.489Z,123.75
2017-09-23T13:18:46.505Z,112.50
2017-09-23T13:20:40.994Z,90.00
2017-09-23T13:21:41.051Z,90.00
2017-09-23T13:23:34.521Z,95.63
2017-09-23T13:24:34.513Z,101.25
2017-09-23T13:26:27.501Z,123.75
2017-09-23T13:27:27.538Z,135.00
2017-09-23T13:29:21.131Z,146.25
2017-09-23T13:30:21.122Z,135.00
2017-09-23T13:32:15.602Z,118.13
2017-09-23T13:33:15.635Z,112.50
2017-09-23T13:35:09.218Z,123.75
2017-09-23T13:36:09.218Z,140.63
2017-09-23T13:38:03.850Z,129.38
2017-09-23T13:39:03.802Z,129.38
2017-09-23T13:40:57.338Z,129.38
2017-09-23T13:41:57.378Z,129.38
2017-09-23T13:43:50.395Z,140.63
2017-09-23T13:44:50.435Z,135.00
2017-09-23T13:46:43.899Z,140.63
2017-09-23T13:47:43.955Z,157.50
2017-09-23T13:49:36.930Z,146.25
2017-09-23T13:50:36.939Z,151.88
2017-09-23T13:52:29.931Z,151.88
2017-09-23T13:53:29.963Z,146.25
2017-09-23T13:55:22.954Z,129.38
2017-09-23T13:56:22.971Z,146.25
2017-09-23T13:58:16.027Z,146.25
2017-09-23T13:59:16.019Z,151.88
2017-09-23T14:01:08.987Z,157.50
2017-09-23T14:02:09.027Z,163.13
2017-09-23T14:04:02.020Z,157.50
2017-09-23T14:05:02.028Z,151.88
2017-09-23T14:06:55.020Z,140.63
2017-09-23T14:07:55.100Z,135.00
2017-09-23T14:09:48.083Z,129.38
2017-09-23T14:10:48.091Z,123.75
2017-09-23T14:12:41.076Z,118.13
2017-09-23T14:13:41.091Z,118.13
2017-09-23T14:15:34.139Z,118.13
2017-09-23T14:16:34.124Z,118.13
2017-09-23T14:18:27.629Z,118.13
2017-09-23T14:19:27.676Z,118.13
2017-09-23T14:21:20.656Z,118.13
2017-09-23T14:22:20.679Z,118.13
2017-09-23T14:24:13.709Z,135.00
2017-09-23T14:25:15.677Z,146.25
2017-09-23T14:27:06.684Z,151.88
2017-09-23T14:28:06.733Z,146.25
2017-09-23T14:29:59.716Z,140.63
2017-09-23T14:30:59.756Z,129.38
2017-09-23T14:32:52.757Z,106.88
2017-09-23T14:33:52.821Z,101.25
2017-09-23T14:35:45.789Z,84.38
2017-09-23T14:36:45.781Z,84.38
2017-09-23T14:38:38.805Z,67.50
2017-09-23T14:39:38.789Z,61.88
2017-09-23T14:41:31.925Z,67.50
2017-09-23T14:42:31.837Z,67.50
2017-09-23T14:44:24.789Z,73.13
2017-09-23T14:45:24.845Z,78.75
2017-09-23T14:47:17.901Z,78.75
2017-09-23T14:48:17.925Z,84.38
2017-09-23T14:50:10.879Z,61.88
2017-09-23T14:51:10.915Z,61.88
2017-09-23T14:53:03.901Z,56.25
2017-09-23T14:54:03.901Z,56.25
2017-09-23T14:55:56.877Z,61.88
2017-09-23T14:56:56.934Z,61.88
2017-09-23T14:58:49.981Z,61.88
2017-09-23T14:59:49.966Z,61.88
2017-09-23T15:01:42.894Z,56.25
2017-09-23T15:02:42.958Z,56.25
2017-09-23T15:04:35.976Z,61.88
2017-09-23T15:05:35.998Z,67.50
2017-09-23T15:07:28.918Z,84.38
2017-09-23T15:08:28.999Z,90.00
2017-09-23T15:10:22.014Z,90.00
2017-09-23T15:11:22.006Z,84.38
2017-09-23T15:13:15.454Z,78.75
2017-09-23T15:14:15.494Z,78.75
2017-09-23T15:16:09.039Z,73.13
2017-09-23T15:17:09.079Z,61.88
2017-09-23T15:19:02.106Z,56.25
2017-09-23T15:20:02.115Z,56.25
2017-09-23T15:21:55.151Z,56.25
2017-09-23T15:22:55.143Z,56.25
2017-09-23T15:24:49.071Z,67.50
2017-09-23T15:25:48.160Z,73.13
2017-09-23T15:27:41.135Z,90.00
2017-09-23T15:28:41.144Z,135.00
2017-09-23T15:30:35.782Z,168.75
2017-09-23T15:31:35.816Z,163.13
2017-09-23T15:33:30.303Z,84.38
2017-09-23T15:34:30.328Z,84.38
2017-09-23T15:36:24.816Z,50.63
2017-09-23T15:37:24.839Z,84.38
2017-09-23T15:39:18.391Z,95.63
2017-09-23T15:40:18.416Z,61.88
2017-09-23T15:42:11.480Z,56.25
2017-09-23T15:43:11.463Z,56.25
2017-09-23T15:45:05.929Z,50.63
2017-09-23T15:46:06.312Z,50.63
2017-09-23T15:48:00.048Z,50.63
2017-09-23T15:49:00.050Z,45.00
2017-09-23T15:50:54.576Z,45.00
2017-09-23T15:51:54.824Z,45.00
2017-09-23T15:53:48.088Z,39.38
2017-09-23T15:54:48.136Z,39.38
2017-09-23T15:56:42.688Z,39.38
2017-09-23T15:57:43.632Z,39.38
2017-09-23T15:59:36.152Z,39.38
2017-09-23T16:00:35.650Z,39.38
2017-09-23T16:02:28.673Z,33.75
2017-09-23T16:03:28.713Z,33.75
2017-09-23T16:05:21.685Z,33.75
2017-09-23T16:06:22.657Z,33.75
2017-09-23T16:08:16.161Z,33.75
2017-09-23T16:09:16.185Z,28.13
2017-09-23T16:11:09.785Z,28.13
2017-09-23T16:12:09.849Z,28.13
2017-09-23T16:14:04.301Z,28.13
2017-09-23T16:15:04.306Z,28.13
2017-09-23T16:16:57.881Z,22.50
2017-09-23T16:17:57.906Z,22.50
2017-09-23T16:19:52.329Z,22.50
2017-09-23T16:20:53.913Z,22.50
2017-09-23T16:22:46.858Z,22.50
2017-09-23T16:23:47.513Z,22.50
2017-09-23T16:25:40.938Z,16.88
2017-09-23T16:26:40.930Z,16.88
2017-09-23T16:28:33.918Z,16.88
2017-09-23T16:29:33.938Z,16.88
2017-09-23T16:31:26.946Z,16.88
2017-09-23T16:32:26.957Z,16.88
2017-09-23T16:34:19.970Z,16.88
2017-09-23T16:35:19.963Z,16.88
2017-09-23T16:37:14.451Z,16.88
2017-09-23T16:38:14.475Z,16.88
2017-09-23T16:40:08.034Z,16.88
2017-09-23T16:41:08.050Z,16.88
2017-09-23T16:43:01.074Z,11.25
2017-09-23T16:44:01.019Z,11.25
2017-09-23T16:45:54.563Z,11.25
2017-09-23T16:46:54.778Z,11.25
2017-09-23T16:48:48.115Z,11.25
2017-09-23T16:49:48.154Z,11.25
2017-09-23T16:51:41.130Z,11.25
2017-09-23T16:52:41.139Z,11.25
2017-09-23T16:56:13.220Z,11.25
2017-09-23T16:57:13.086Z,11.25
2017-09-23T16:59:06.079Z,5.63
2017-09-23T17:00:06.148Z,5.63
2017-09-23T17:01:59.108Z,5.63
2017-09-23T17:03:00.119Z,5.63
2017-09-23T17:04:52.083Z,5.63
2017-09-23T17:05:52.115Z,5.63
2017-09-23T17:07:45.603Z,5.63
2017-09-23T17:08:45.651Z,5.63
2017-09-23T17:10:41.620Z,5.63
2017-09-23T17:11:41.628Z,5.63
2017-09-23T17:13:36.252Z,5.63
2017-09-23T17:14:36.140Z,0.00
2017-09-23T17:16:29.676Z,0.00
2017-09-23T17:17:29.716Z,0.00
2017-09-23T17:19:24.204Z,0.00
2017-09-23T17:20:24.204Z,0.00
2017-09-23T17:22:19.252Z,0.00
2017-09-23T17:23:19.286Z,0.00
2017-09-23T17:25:13.749Z,0.00
2017-09-23T17:26:13.748Z,0.00
2017-09-23T17:28:08.341Z,0.00
2017-09-23T17:29:08.349Z,0.00
2017-09-23T17:31:01.925Z,0.00
2017-09-23T17:32:01.957Z,0.00
2017-09-23T17:33:55.365Z,0.00
2017-09-23T17:34:55.444Z,0.00
2017-09-23T17:36:48.969Z,0.00
2017-09-23T17:37:48.988Z,0.00
2017-09-23T17:39:43.436Z,0.00
2017-09-23T17:40:43.549Z,0.00
2017-09-23T17:42:37.993Z,0.00
2017-09-23T17:43:37.977Z,0.00
2017-09-23T17:45:32.465Z,0.00
2017-09-23T17:46:32.629Z,0.00
2017-09-23T17:48:26.005Z,0.00
2017-09-23T17:49:25.989Z,0.00
2017-09-23T17:51:20.461Z,0.00
2017-09-23T17:52:20.477Z,0.00
2017-09-23T17:54:14.941Z,0.00
2017-09-23T17:55:15.049Z,0.00
2017-09-23T17:57:09.469Z,0.00
2017-09-23T17:58:09.542Z,0.00
2017-09-23T18:00:04.038Z,0.00
2017-09-23T18:01:04.118Z,0.00
2017-09-23T18:02:57.574Z,0.00
2017-09-23T18:03:57.566Z,0.00
2017-09-23T18:05:52.014Z,0.00
2017-09-23T18:06:52.054Z,0.00
2017-09-23T18:08:46.589Z,0.00
2017-09-23T18:09:46.598Z,0.00
2017-09-23T18:11:40.630Z,0.00
2017-09-23T18:12:40.646Z,0.00
2017-09-23T18:14:35.622Z,0.00
2017-09-23T18:15:35.661Z,0.00
2017-09-23T18:17:30.198Z,0.00
2017-09-23T18:18:30.246Z,0.00
2017-09-23T18:20:23.254Z,0.00
2017-09-23T18:21:23.262Z,0.00
2017-09-23T18:23:17.283Z,0.00
2017-09-23T18:24:17.268Z,0.00
2017-09-23T18:26:11.811Z,0.00
2017-09-23T18:27:11.860Z,0.00
2017-09-23T18:29:06.292Z,0.00
2017-09-23T18:30:06.844Z,0.00
2017-09-23T18:32:00.819Z,0.00
2017-09-23T18:33:00.859Z,0.00
2017-09-23T18:34:55.292Z,0.00
2017-09-23T18:35:55.380Z,0.00
2017-09-23T18:37:48.900Z,0.00
2017-09-23T18:38:48.844Z,0.00
2017-09-23T18:40:42.332Z,0.00
2017-09-23T18:41:42.372Z,0.00
2017-09-23T18:43:36.884Z,0.00
2017-09-23T18:44:36.868Z,0.00
2017-09-23T18:46:32.940Z,0.00
2017-09-23T18:47:33.872Z,0.00